Time;durP1;ratioP1;P1;durP2;ratioP2;P2;SDS_P1;SDS_P2;PMS_P1;PMS_P2;Temp;Humidity;BMP_temperature;BMP_pressure;BME280_temperature;BME280_humidity;BME280_pressure;Samples;Min_cycle;Max_cycle;Signal;HPM_P1;HPM_P2
2021/05/30 00:02:44;;;;;;;0.37;0.30;;;22.70;99.90;;;;;;20614130;28;20525;-65
2021/05/30 00:12:47;;;;;;;0.50;0.50;;;22.60;99.90;;;;;;20670005;28;20234;-65
2021/05/30 00:22:51;;;;;;;1.13;0.43;;;22.70;99.90;;;;;;20696512;28;20420;-66
2021/05/30 00:32:54;;;;;;;3.23;0.70;;;22.80;99.90;;;;;;20675772;28;20246;-66
2021/05/30 00:42:59;;;;;;;0.90;0.83;;;22.50;99.90;;;;;;20695388;28;20197;-65
2021/05/30 00:53:02;;;;;;;1.87;0.53;;;22.20;99.90;;;;;;20692933;28;20711;-66
2021/05/30 01:03:06;;;;;;;0.73;0.50;;;22.30;99.90;;;;;;20695681;28;20243;-66
2021/05/30 01:13:12;;;;;;;0.50;0.40;;;22.40;99.90;;;;;;20631475;28;20387;-65
2021/05/30 01:23:18;;;;;;;0.77;0.53;;;22.50;99.90;;;;;;20612315;28;20195;-65
2021/05/30 01:33:21;;;;;;;0.93;0.50;;;22.70;99.90;;;;;;20593815;28;20234;-65
2021/05/30 01:43:25;;;;;;;1.90;1.23;;;22.70;99.90;;;;;;20610672;28;20196;-65
2021/05/30 01:53:34;;;;;;;0.60;0.60;;;22.50;99.90;;;;;;20625701;28;20223;-64
2021/05/30 02:03:40;;;;;;;0.20;0.20;;;22.40;99.90;;;;;;20624645;28;20239;-65
2021/05/30 02:13:44;;;;;;;0.80;0.47;;;22.30;99.90;;;;;;20688605;28;20225;-65
2021/05/30 02:23:48;;;;;;;0.93;0.63;;;22.10;99.90;;;;;;20685851;28;20203;-64
2021/05/30 02:33:51;;;;;;;0.77;0.50;;;21.80;99.90;;;;;;20705264;28;20226;-65
2021/05/30 02:43:55;;;;;;;0.60;0.30;;;21.70;99.90;;;;;;20700750;28;20633;-64
2021/05/30 02:53:58;;;;;;;0.30;0.20;;;21.50;99.90;;;;;;20700815;28;20237;-64
2021/05/30 03:04:02;;;;;;;0.40;0.40;;;21.50;99.90;;;;;;20700392;28;20230;-65
2021/05/30 03:14:05;;;;;;;1.17;0.43;;;21.60;99.90;;;;;;20632186;28;20237;-64
2021/05/30 03:24:10;;;;;;;0.77;0.30;;;21.80;99.90;;;;;;20623631;28;20196;-64
2021/05/30 03:34:13;;;;;;;0.37;0.37;;;21.60;99.90;;;;;;20620016;28;20237;-65
2021/05/30 03:44:17;;;;;;;0.30;0.20;;;21.70;99.90;;;;;;20616753;28;20199;-65
2021/05/30 03:54:20;;;;;;;1.90;0.30;;;21.50;99.90;;;;;;20617374;28;20227;-66
2021/05/30 04:04:24;;;;;;;0.93;0.80;;;21.50;99.90;;;;;;20614531;28;20224;-67
2021/05/30 04:14:27;;;;;;;0.83;0.50;;;21.70;99.90;;;;;;20678497;28;20222;-67
2021/05/30 04:24:31;;;;;;;0.20;0.10;;;21.60;99.90;;;;;;20695080;28;20333;-67
2021/05/30 04:34:34;;;;;;;0.30;0.20;;;21.40;99.90;;;;;;20696294;28;20238;-67
2021/05/30 04:44:38;;;;;;;0.53;0.53;;;21.70;99.90;;;;;;20694456;28;20775;-67
2021/05/30 04:54:41;;;;;;;1.40;0.87;;;21.60;99.90;;;;;;20695478;28;20230;-67
2021/05/30 05:04:45;;;;;;;1.03;0.53;;;21.10;99.90;;;;;;20691827;28;20219;-67
2021/05/30 05:14:48;;;;;;;0.70;0.70;;;21.20;99.90;;;;;;20685279;28;20241;-67
2021/05/30 05:24:52;;;;;;;0.50;0.40;;;20.90;99.90;;;;;;20709382;28;20191;-67
2021/05/30 05:34:55;;;;;;;4.10;0.80;;;20.80;99.90;;;;;;20709965;28;21109;-68
2021/05/30 05:44:59;;;;;;;1.40;1.10;;;20.80;99.90;;;;;;20687658;28;20209;-68
2021/05/30 05:55:02;;;;;;;0.57;0.20;;;21.20;99.90;;;;;;20689986;28;20229;-69
2021/05/30 06:05:08;;;;;;;14.77;0.70;;;21.70;99.90;;;;;;20696496;28;20234;-69
2021/05/30 06:15:11;;;;;;;1.13;0.73;;;22.00;99.90;;;;;;20628582;28;20669;-69
2021/05/30 06:25:16;;;;;;;0.87;0.67;;;21.80;99.90;;;;;;20605844;28;20213;-68
2021/05/30 06:35:19;;;;;;;1.03;0.80;;;21.70;99.90;;;;;;20623821;28;20223;-68
2021/05/30 06:45:24;;;;;;;4.70;1.40;;;21.90;99.90;;;;;;20619840;28;20204;-68
2021/05/30 06:55:27;;;;;;;1.27;0.73;;;22.50;99.90;;;;;;20603614;28;20226;-68
2021/05/30 07:05:31;;;;;;;0.30;0.20;;;22.40;99.90;;;;;;20618765;28;20692;-69
2021/05/30 07:15:38;;;;;;;1.50;0.83;;;22.10;99.90;;;;;;20689418;28;21087;-67
2021/05/30 07:25:43;;;;;;;1.23;0.93;;;22.50;99.90;;;;;;20667889;28;20408;-67
2021/05/30 07:35:46;;;;;;;1.80;1.07;;;22.30;99.90;;;;;;20696620;28;20218;-66
2021/05/30 07:45:50;;;;;;;5.67;0.80;;;22.50;99.90;;;;;;20618231;28;20195;-68
2021/05/30 07:55:53;;;;;;;1.13;0.83;;;22.70;99.90;;;;;;20611910;28;20223;-67
2021/05/30 08:05:58;;;;;;;0.50;0.40;;;23.20;99.90;;;;;;20612804;28;20235;-69
2021/05/30 08:16:01;;;;;;;0.60;0.57;;;23.00;99.90;;;;;;20692756;28;20603;-68
2021/05/30 08:26:05;;;;;;;0.43;0.30;;;23.50;99.90;;;;;;20690351;28;20195;-68
2021/05/30 08:36:08;;;;;;;0.60;0.57;;;23.10;99.90;;;;;;20616361;28;20219;-71
2021/05/30 08:46:12;;;;;;;0.73;0.60;;;22.90;99.90;;;;;;20605970;28;20199;-68
2021/05/30 08:56:17;;;;;;;1.10;0.40;;;23.00;99.90;;;;;;20609293;28;20235;-68
2021/05/30 09:06:22;;;;;;;1.37;0.80;;;22.80;99.90;;;;;;20609259;28;20270;-66
2021/05/30 09:16:57;;;;;;;1.80;1.00;;;22.90;99.90;;;;;;20685630;28;20226;-67
2021/05/30 09:27:09;;;;;;;0.73;0.70;;;23.60;99.90;;;;;;20688542;28;20195;-67
2021/05/30 09:37:12;;;;;;;1.30;0.90;;;24.40;99.90;;;;;;20686094;28;20237;-68
2021/05/30 09:47:34;;;;;;;0.37;0.37;;;23.40;99.90;;;;;;20688863;28;20205;-67
2021/05/30 09:57:38;;;;;;;0.30;0.30;;;23.40;99.90;;;;;;20692020;28;20597;-68
2021/05/30 10:07:42;;;;;;;2.70;2.08;;;23.80;99.90;;;;;;20683130;28;20628;-67
2021/05/30 10:17:47;;;;;;;0.30;0.30;;;24.00;99.90;;;;;;20618825;28;20235;-68
2021/05/30 10:28:10;;;;;;;0.90;0.73;;;24.30;99.90;;;;;;20616713;28;20319;-68
2021/05/30 10:38:36;;;;;;;0.50;0.43;;;25.00;99.90;;;;;;20617057;28;20710;-68
2021/05/30 10:48:43;;;;;;;2.33;1.17;;;24.90;99.90;;;;;;20617228;28;20550;-65
2021/05/30 10:59:33;;;;;;;1.63;1.23;;;25.30;99.90;;;;;;20614033;28;20227;-67
2021/05/30 11:10:01;;;;;;;2.40;1.77;;;25.60;99.90;;;;;;20644070;28;20239;-70
2021/05/30 11:20:06;;;;;;;2.35;0.77;;;25.40;99.90;;;;;;20689167;28;20203;-66
2021/05/30 11:30:11;;;;;;;0.90;0.68;;;26.80;99.90;;;;;;20682087;28;20230;-68
2021/05/30 11:40:18;;;;;;;0.80;0.80;;;27.10;99.90;;;;;;20695515;28;20500;-67
2021/05/30 11:50:31;;;;;;;1.40;0.75;;;27.20;99.90;;;;;;20693651;28;20223;-67
2021/05/30 12:00:35;;;;;;;3.78;1.63;;;27.80;99.90;;;;;;20691893;28;20220;-67
2021/05/30 12:10:52;;;;;;;6.05;2.00;;;28.80;99.90;;;;;;20694058;28;20234;-68
2021/05/30 12:21:01;;;;;;;1.55;1.05;;;29.10;99.90;;;;;;20692500;28;20209;-67
2021/05/30 12:31:07;;;;;;;1.48;1.23;;;29.40;99.90;;;;;;20692162;28;20757;-67
2021/05/30 12:41:14;;;;;;;0.93;0.75;;;28.30;99.90;;;;;;20692617;28;20199;-67
2021/05/30 12:51:20;;;;;;;1.20;0.55;;;29.00;99.90;;;;;;20674376;28;20214;-67
2021/05/30 13:01:24;;;;;;;1.10;1.00;;;28.60;99.90;;;;;;20690218;28;20223;-65
2021/05/30 13:11:32;;;;;;;2.30;0.75;;;28.30;99.90;;;;;;20644467;28;21103;-66
2021/05/30 13:21:36;;;;;;;0.32;0.32;;;29.00;99.90;;;;;;20610089;28;20279;-65
2021/05/30 13:31:41;;;;;;;1.25;0.60;;;29.40;99.90;;;;;;20618168;28;20762;-67
2021/05/30 13:41:45;;;;;;;0.57;0.57;;;29.40;99.90;;;;;;20631761;28;20266;-67
2021/05/30 13:51:49;;;;;;;1.17;1.08;;;29.40;99.90;;;;;;20607624;28;20223;-66
2021/05/30 14:01:52;;;;;;;0.28;0.28;;;29.60;99.90;;;;;;20623037;28;20231;-65
2021/05/30 14:11:56;;;;;;;2.80;1.40;;;29.60;99.90;;;;;;20625137;28;20362;-66
2021/05/30 14:21:59;;;;;;;1.30;0.88;;;29.90;99.90;;;;;;20678194;28;20426;-68
2021/05/30 14:32:04;;;;;;;1.02;0.68;;;30.00;99.90;;;;;;20703154;28;20222;-68
2021/05/30 14:42:07;;;;;;;2.80;0.80;;;30.90;99.90;;;;;;20697202;28;20206;-68
2021/05/30 14:52:11;;;;;;;4.32;0.77;;;31.00;99.90;;;;;;20681264;28;20664;-66
2021/05/30 15:02:15;;;;;;;4.95;0.93;;;31.60;99.90;;;;;;20696256;28;20321;-63
2021/05/30 15:12:19;;;;;;;0.95;0.85;;;30.30;99.90;;;;;;20645681;28;20465;-69
2021/05/30 15:22:22;;;;;;;0.90;0.85;;;30.40;99.90;;;;;;20614687;28;20192;-67
2021/05/30 15:32:26;;;;;;;1.05;1.05;;;30.60;99.90;;;;;;20614283;28;20301;-66
2021/05/30 15:42:29;;;;;;;3.25;0.85;;;31.20;99.90;;;;;;20594784;28;20206;-68
2021/05/30 15:52:33;;;;;;;1.85;0.88;;;29.90;99.90;;;;;;20612664;28;20223;-68
2021/05/30 16:02:36;;;;;;;3.00;1.35;;;30.20;99.90;;;;;;20610238;28;20227;-67
2021/05/30 16:12:40;;;;;;;1.55;0.70;;;30.20;99.90;;;;;;20650722;28;20602;-64
2021/05/30 16:22:44;;;;;;;2.20;0.93;;;29.50;99.90;;;;;;20690732;28;20563;-67
2021/05/30 16:32:48;;;;;;;0.63;0.63;;;28.90;99.90;;;;;;20691620;28;20235;-68
2021/05/30 16:42:51;;;;;;;1.33;0.98;;;28.20;99.90;;;;;;20690520;28;20199;-67
2021/05/30 16:52:55;;;;;;;0.73;0.68;;;27.40;99.90;;;;;;20690566;28;20227;-69
2021/05/30 17:02:58;;;;;;;0.40;0.40;;;26.90;99.90;;;;;;20690182;28;20233;-67
2021/05/30 17:13:05;;;;;;;2.15;0.95;;;26.00;99.90;;;;;;20685253;28;20230;-69
2021/05/30 17:23:09;;;;;;;2.20;0.40;;;26.10;99.90;;;;;;20698107;28;20265;-67
2021/05/30 17:33:13;;;;;;;0.43;0.30;;;25.00;99.90;;;;;;20706733;28;20226;-67
2021/05/30 17:43:16;;;;;;;0.50;0.50;;;24.30;99.90;;;;;;20684066;28;20206;-67
2021/05/30 17:53:20;;;;;;;0.82;0.40;;;24.60;99.90;;;;;;20703908;28;20234;-67
2021/05/30 18:03:24;;;;;;;0.90;0.63;;;24.20;99.90;;;;;;20685273;28;20362;-67
2021/05/30 18:13:48;;;;;;;2.05;0.82;;;24.40;99.90;;;;;;20638325;28;20227;-67
2021/05/30 18:23:51;;;;;;;1.67;0.50;;;24.20;99.90;;;;;;20623356;28;20210;-67
2021/05/30 18:33:55;;;;;;;0.83;0.70;;;23.80;99.90;;;;;;20630495;28;20227;-67
2021/05/30 18:43:58;;;;;;;6.03;1.37;;;23.30;99.90;;;;;;20618622;28;20222;-65
2021/05/30 18:54:03;;;;;;;0.57;0.57;;;23.30;99.90;;;;;;20619221;28;20227;-67
2021/05/30 19:04:06;;;;;;;3.70;1.53;;;23.20;99.90;;;;;;20610427;28;20226;-65
2021/05/30 19:14:10;;;;;;;3.60;0.67;;;22.90;99.90;;;;;;20616625;28;20371;-67
2021/05/30 19:24:14;;;;;;;2.43;0.73;;;22.70;99.90;;;;;;20601477;28;20202;-69
2021/05/30 19:34:18;;;;;;;1.47;0.50;;;22.30;99.90;;;;;;20617380;28;20231;-66
2021/05/30 19:44:21;;;;;;;1.27;0.90;;;22.60;99.90;;;;;;20616527;28;20196;-65
2021/05/30 19:54:25;;;;;;;0.80;0.70;;;22.60;99.90;;;;;;20688751;28;20229;-67
2021/05/30 20:04:28;;;;;;;0.57;0.30;;;22.60;99.90;;;;;;20695344;28;20625;-66
2021/05/30 20:14:32;;;;;;;1.17;0.77;;;22.30;99.90;;;;;;20694396;28;20337;-67
2021/05/30 20:24:36;;;;;;;1.20;0.83;;;22.30;99.90;;;;;;20692832;28;20203;-66
2021/05/30 20:34:41;;;;;;;0.43;0.33;;;22.00;99.90;;;;;;20694600;28;20219;-64
2021/05/30 20:44:44;;;;;;;2.97;1.17;;;22.10;99.90;;;;;;20690546;28;20296;-67
2021/05/30 20:54:48;;;;;;;1.20;1.10;;;21.90;99.90;;;;;;20693579;28;20226;-70
2021/05/30 21:04:51;;;;;;;0.33;0.20;;;21.80;99.90;;;;;;20691239;28;20223;-68
2021/05/30 21:14:55;;;;;;;0.40;0.30;;;21.70;99.90;;;;;;20594859;28;20231;-67
2021/05/30 21:24:58;;;;;;;1.50;0.87;;;21.20;99.90;;;;;;20617483;28;20697;-66
2021/05/30 21:35:03;;;;;;;0.53;0.50;;;21.10;99.90;;;;;;20619319;28;20259;-66
2021/05/30 21:45:07;;;;;;;0.97;0.83;;;20.90;99.90;;;;;;20608533;28;20674;-67
2021/05/30 21:55:11;;;;;;;1.13;0.53;;;21.00;99.90;;;;;;20616142;28;20242;-66
2021/05/30 22:05:16;;;;;;;2.73;0.87;;;20.70;99.90;;;;;;20623862;28;20572;-66
2021/05/30 22:15:24;;;;;;;3.73;0.40;;;20.50;99.90;;;;;;20599098;28;20691;-66
2021/05/30 22:25:27;;;;;;;0.43;0.23;;;20.50;99.90;;;;;;20603992;28;20683;-67
2021/05/30 22:35:32;;;;;;;0.40;0.40;;;20.60;99.90;;;;;;20623398;28;20318;-67
2021/05/30 22:45:37;;;;;;;0.30;0.30;;;20.80;99.90;;;;;;20621540;28;20254;-68
2021/05/30 22:55:41;;;;;;;1.30;1.00;;;20.70;99.90;;;;;;20622048;28;20234;-67
2021/05/30 23:05:44;;;;;;;0.63;0.43;;;20.50;99.90;;;;;;20617374;28;20235;-67
2021/05/30 23:15:49;;;;;;;0.63;0.30;;;20.40;99.90;;;;;;20539121;28;20581;-67
2021/05/30 23:25:52;;;;;;;0.73;0.30;;;20.50;99.90;;;;;;20538847;28;20701;-67
2021/05/30 23:35:56;;;;;;;0.47;0.33;;;20.40;99.90;;;;;;20546724;28;20216;-67
2021/05/30 23:46:01;;;;;;;0.50;0.43;;;20.70;99.90;;;;;;20536439;28;20227;-66
2021/05/30 23:56:06;;;;;;;0.20;0.13;;;20.70;99.90;;;;;;20535550;28;20232;-66
